Time;durP1;ratioP1;P1;durP2;ratioP2;P2;SDS_P1;SDS_P2;PMS_P1;PMS_P2;Temp;Humidity;BMP_temperature;BMP_pressure;BME280_temperature;BME280_humidity;BME280_pressure;Samples;Min_cycle;Max_cycle;Signal;HPM_P1;HPM_P2
2022/04/29 00:00:55;;;;;;;6.60;3.17;;;10.00;92.10;;;;;;6236041;28;19929;-81
2022/04/29 00:03:56;;;;;;;5.85;2.75;;;10.00;92.10;;;;;;6237645;28;20078;-81
2022/04/29 00:07:00;;;;;;;4.53;3.08;;;9.90;92.20;;;;;;6233730;28;20081;-81
2022/04/29 00:10:01;;;;;;;4.88;3.55;;;9.90;92.30;;;;;;6228312;28;20044;-81
2022/04/29 00:13:05;;;;;;;6.07;3.10;;;9.90;92.30;;;;;;6234878;28;20053;-81
2022/04/29 00:16:07;;;;;;;5.65;3.28;;;9.90;92.50;;;;;;6236215;28;20069;-81
2022/04/29 00:19:08;;;;;;;4.90;3.55;;;9.80;92.30;;;;;;6234246;28;25361;-81
2022/04/29 00:22:12;;;;;;;4.88;4.00;;;9.80;92.40;;;;;;6237544;28;20104;-80
2022/04/29 00:25:14;;;;;;;5.10;3.30;;;9.80;92.50;;;;;;6233979;28;20109;-81
2022/04/29 00:28:16;;;;;;;6.25;3.92;;;9.70;92.70;;;;;;6207305;28;20049;-81
2022/04/29 00:31:17;;;;;;;6.65;3.47;;;9.60;92.50;;;;;;6234575;22;20116;-81
2022/04/29 00:34:19;;;;;;;5.90;2.70;;;9.70;92.70;;;;;;6240711;28;20057;-81
2022/04/29 00:37:22;;;;;;;5.03;3.65;;;9.70;92.70;;;;;;6238707;28;20066;-82
2022/04/29 00:40:26;;;;;;;6.30;3.72;;;9.60;92.60;;;;;;6225960;28;20057;-81
2022/04/29 00:43:28;;;;;;;5.95;3.90;;;9.60;92.80;;;;;;6214429;28;20042;-82
2022/04/29 00:46:33;;;;;;;5.50;3.00;;;9.60;92.80;;;;;;6214869;28;20496;-81
2022/04/29 00:49:35;;;;;;;8.27;3.03;;;9.50;93.00;;;;;;6212425;28;20129;-81
2022/04/29 00:52:41;;;;;;;5.40;3.63;;;9.50;93.00;;;;;;6216000;28;20142;-81
2022/04/29 00:55:45;;;;;;;4.70;3.58;;;9.50;93.00;;;;;;6212844;28;20050;-81
2022/04/29 00:58:53;;;;;;;6.38;3.50;;;9.50;92.90;;;;;;6217897;28;20050;-81
2022/04/29 01:01:56;;;;;;;7.60;3.75;;;9.50;93.10;;;;;;6214850;28;20050;-81
2022/04/29 01:05:02;;;;;;;6.20;4.22;;;9.50;93.10;;;;;;6218133;28;20114;-81
2022/04/29 01:08:06;;;;;;;8.75;3.25;;;9.50;93.10;;;;;;6217303;28;20046;-82
2022/04/29 01:11:08;;;;;;;8.85;4.60;;;9.50;93.00;;;;;;6216396;28;20046;-82
2022/04/29 01:14:10;;;;;;;5.50;4.07;;;9.50;93.20;;;;;;6218025;28;20070;-82
2022/04/29 01:17:12;;;;;;;5.25;3.17;;;9.40;93.10;;;;;;6218755;28;20046;-81
2022/04/29 01:20:15;;;;;;;5.15;3.80;;;9.40;93.10;;;;;;6218757;28;20046;-81
2022/04/29 01:23:18;;;;;;;4.43;3.72;;;9.40;93.20;;;;;;6219143;28;20102;-82
2022/04/29 01:26:20;;;;;;;6.60;3.17;;;9.40;93.10;;;;;;6220304;28;20475;-81
2022/04/29 01:29:23;;;;;;;8.70;4.07;;;9.30;93.10;;;;;;6215058;28;20042;-81
2022/04/29 01:32:25;;;;;;;5.18;3.33;;;9.40;93.20;;;;;;6224509;28;20038;-80
2022/04/29 01:35:27;;;;;;;5.78;3.45;;;9.30;93.10;;;;;;6210732;28;20042;-81
2022/04/29 01:38:30;;;;;;;5.45;3.40;;;9.40;93.40;;;;;;6210540;28;20593;-80
2022/04/29 01:41:33;;;;;;;6.80;4.22;;;9.30;93.10;;;;;;6206934;28;20073;-81
2022/04/29 01:44:34;;;;;;;7.40;3.70;;;9.40;93.30;;;;;;6207007;28;20061;-80
2022/04/29 01:47:37;;;;;;;4.60;3.28;;;9.30;93.30;;;;;;6209865;28;20128;-81
2022/04/29 01:50:39;;;;;;;4.45;3.35;;;9.30;93.30;;;;;;6207697;28;20046;-81
2022/04/29 01:53:42;;;;;;;6.00;4.15;;;9.30;93.30;;;;;;6207860;28;20142;-81
2022/04/29 01:56:44;;;;;;;5.20;3.70;;;9.30;93.30;;;;;;6205556;28;20052;-82
2022/04/29 01:59:46;;;;;;;5.72;3.85;;;9.20;93.20;;;;;;6207862;28;20042;-81
2022/04/29 02:02:48;;;;;;;6.20;3.58;;;9.20;93.30;;;;;;6209175;28;20051;-81
2022/04/29 02:05:49;;;;;;;6.82;4.05;;;9.20;93.20;;;;;;6207805;28;20046;-81
2022/04/29 02:08:53;;;;;;;6.90;4.20;;;9.20;93.30;;;;;;6207233;28;20114;-81
2022/04/29 02:12:07;;;;;;;6.20;4.03;;;9.20;93.30;;;;;;6208157;28;20523;-80
2022/04/29 02:15:09;;;;;;;8.70;3.33;;;9.10;93.30;;;;;;6206626;28;20054;-81
2022/04/29 02:18:11;;;;;;;5.97;3.78;;;9.00;93.40;;;;;;6208199;28;20050;-81
2022/04/29 02:21:13;;;;;;;10.15;3.83;;;9.00;93.50;;;;;;6206122;28;20046;-81
2022/04/29 02:24:16;;;;;;;7.18;4.00;;;9.00;93.60;;;;;;6206696;28;20058;-80
2022/04/29 02:27:18;;;;;;;6.63;3.53;;;9.00;93.70;;;;;;6206553;28;20053;-81
2022/04/29 02:30:20;;;;;;;6.60;4.53;;;8.90;93.50;;;;;;6207367;28;20051;-82
2022/04/29 02:33:21;;;;;;;4.88;3.90;;;8.80;93.50;;;;;;6212108;28;20101;-81
2022/04/29 02:36:23;;;;;;;5.60;3.95;;;8.80;93.40;;;;;;6211374;28;20483;-82
2022/04/29 02:39:26;;;;;;;7.07;3.95;;;8.80;93.40;;;;;;6211057;28;20050;-81
2022/04/29 02:42:28;;;;;;;6.28;4.72;;;8.80;93.50;;;;;;6212234;28;20050;-82
2022/04/29 02:45:30;;;;;;;9.63;4.18;;;8.80;93.50;;;;;;6211545;28;20050;-82
2022/04/29 02:48:32;;;;;;;9.32;4.68;;;8.80;93.60;;;;;;6208910;28;20074;-81
2022/04/29 02:51:33;;;;;;;6.93;4.43;;;8.80;93.60;;;;;;6213052;28;20038;-80
2022/04/29 02:54:37;;;;;;;7.07;4.60;;;8.90;93.60;;;;;;6211385;28;20054;-81
2022/04/29 02:57:39;;;;;;;7.88;4.55;;;8.80;93.60;;;;;;6211417;28;20508;-80
2022/04/29 03:00:41;;;;;;;5.28;4.13;;;8.70;93.60;;;;;;6210787;28;20072;-80
2022/04/29 03:03:42;;;;;;;6.82;4.82;;;8.70;93.80;;;;;;6211280;28;20181;-80
2022/04/29 03:06:44;;;;;;;8.85;4.13;;;8.70;93.90;;;;;;6212048;28;20056;-80
2022/04/29 03:09:48;;;;;;;7.43;3.90;;;8.70;94.00;;;;;;6210799;28;20128;-80
2022/04/29 03:12:50;;;;;;;9.23;4.78;;;8.70;94.00;;;;;;6211823;28;20397;-80
2022/04/29 03:15:51;;;;;;;14.60;4.90;;;8.60;94.10;;;;;;6211607;28;20070;-81
2022/04/29 03:18:53;;;;;;;9.95;4.43;;;8.60;94.10;;;;;;6211923;28;20082;-81
2022/04/29 03:21:55;;;;;;;9.88;5.65;;;8.50;94.10;;;;;;6208624;28;20058;-81
2022/04/29 03:24:58;;;;;;;7.20;4.22;;;8.50;94.10;;;;;;6208684;28;20404;-81
2022/04/29 03:28:00;;;;;;;5.97;4.47;;;8.50;94.20;;;;;;6207205;28;20101;-81
2022/04/29 03:31:02;;;;;;;7.55;5.05;;;8.40;94.10;;;;;;6206390;28;20623;-80
2022/04/29 03:34:04;;;;;;;8.05;5.30;;;8.40;94.20;;;;;;6209080;28;20118;-81
2022/04/29 03:37:06;;;;;;;12.93;5.07;;;8.40;94.30;;;;;;6207892;28;20046;-81
2022/04/29 03:40:11;;;;;;;10.48;4.80;;;8.40;94.20;;;;;;6207986;28;20042;-81
2022/04/29 03:43:12;;;;;;;8.07;5.50;;;8.40;94.20;;;;;;6207421;28;20046;-79
2022/04/29 03:46:14;;;;;;;8.52;4.90;;;8.40;94.30;;;;;;6209183;28;20057;-80
2022/04/29 03:52:45;;;;;;;21.13;9.13;;;8.50;94.40;;;;;;6225996;28;20526;-79
2022/04/29 03:55:49;;;;;;;10.68;6.82;;;8.50;95.40;;;;;;6227930;28;20104;-81
2022/04/29 03:58:50;;;;;;;11.43;6.78;;;8.60;95.30;;;;;;6218130;28;20133;-81
2022/04/29 04:01:52;;;;;;;8.20;5.45;;;8.60;95.00;;;;;;6215396;28;20043;-81
2022/04/29 04:04:54;;;;;;;9.40;6.07;;;8.60;94.90;;;;;;6216424;28;20471;-81
2022/04/29 04:07:56;;;;;;;9.40;5.13;;;8.60;94.80;;;;;;6213837;28;20060;-81
2022/04/29 04:10:59;;;;;;;7.70;4.93;;;8.40;94.60;;;;;;6214730;28;20046;-80
2022/04/29 04:14:01;;;;;;;6.75;4.88;;;8.50;94.70;;;;;;6214516;28;20050;-80
2022/04/29 04:17:03;;;;;;;8.25;5.20;;;8.40;94.70;;;;;;6212317;28;20042;-81
2022/04/29 04:20:06;;;;;;;10.32;5.70;;;8.40;94.60;;;;;;6214363;28;20096;-81
2022/04/29 04:23:09;;;;;;;8.77;5.47;;;8.40;94.70;;;;;;6213085;28;20053;-80
2022/04/29 04:26:12;;;;;;;7.68;5.05;;;8.40;94.80;;;;;;6214528;28;20108;-81
2022/04/29 04:29:14;;;;;;;8.93;5.05;;;8.40;94.80;;;;;;6214428;28;20058;-80
2022/04/29 04:32:15;;;;;;;9.63;6.07;;;8.40;94.70;;;;;;6212644;28;20061;-80
2022/04/29 04:35:17;;;;;;;7.47;5.10;;;8.50;94.70;;;;;;6214169;28;20048;-81
2022/04/29 04:38:19;;;;;;;6.43;5.50;;;8.50;94.60;;;;;;6213672;28;20054;-80
2022/04/29 04:41:22;;;;;;;7.00;4.95;;;8.50;94.50;;;;;;6215242;28;20492;-80
2022/04/29 04:44:24;;;;;;;8.27;5.35;;;8.60;94.40;;;;;;6214836;28;20050;-81
2022/04/29 04:47:26;;;;;;;11.63;5.97;;;8.70;94.30;;;;;;6214213;28;20100;-80
2022/04/29 04:50:27;;;;;;;12.48;5.20;;;8.80;94.10;;;;;;6215043;28;20061;-80
2022/04/29 04:53:29;;;;;;;8.75;5.65;;;9.00;94.10;;;;;;6213365;28;20110;-80
2022/04/29 04:56:32;;;;;;;7.70;4.40;;;9.10;93.90;;;;;;6213238;28;20046;-80
2022/04/29 04:59:34;;;;;;;7.25;5.40;;;9.30;93.80;;;;;;6210079;28;20515;-80
2022/04/29 05:02:39;;;;;;;7.25;4.97;;;9.40;93.70;;;;;;6209616;28;20420;-80
2022/04/29 05:05:41;;;;;;;8.93;5.43;;;9.70;93.50;;;;;;6211419;28;20056;-81
2022/04/29 05:08:43;;;;;;;8.48;5.13;;;9.80;93.30;;;;;;6211625;28;20500;-81
2022/04/29 05:11:46;;;;;;;5.95;4.55;;;10.10;93.10;;;;;;6213688;28;20038;-81
2022/04/29 05:14:48;;;;;;;7.30;4.57;;;10.30;92.90;;;;;;6211483;28;20546;-80
2022/04/29 05:17:50;;;;;;;7.30;4.68;;;10.50;92.70;;;;;;6212829;28;20061;-80
2022/04/29 05:20:51;;;;;;;10.80;5.13;;;10.70;92.40;;;;;;6230086;28;20041;-81
2022/04/29 05:23:53;;;;;;;8.02;5.30;;;11.00;92.10;;;;;;6237288;28;20133;-81
2022/04/29 05:26:57;;;;;;;8.80;5.13;;;11.30;91.90;;;;;;6238055;28;20137;-80
2022/04/29 05:29:59;;;;;;;7.90;4.88;;;11.50;91.50;;;;;;6237988;28;20141;-80
2022/04/29 05:33:01;;;;;;;6.97;4.57;;;11.80;91.20;;;;;;6232697;28;20046;-81
2022/04/29 05:36:06;;;;;;;6.68;4.25;;;12.10;90.70;;;;;;6232571;28;20050;-80
2022/04/29 05:42:28;;;;;;;8.88;4.60;;;12.80;89.80;;;;;;6236385;28;20049;-82
2022/04/29 05:45:30;;;;;;;7.05;4.50;;;13.20;87.40;;;;;;6236855;28;20101;-81
2022/04/29 05:48:32;;;;;;;7.35;5.40;;;13.40;85.30;;;;;;6233930;28;20124;-82
2022/04/29 05:51:34;;;;;;;6.57;4.53;;;13.50;84.80;;;;;;6233261;28;20050;-81
2022/04/29 05:54:36;;;;;;;6.90;4.82;;;13.50;84.30;;;;;;6232928;28;20056;-81
2022/04/29 05:57:39;;;;;;;6.80;4.13;;;13.50;85.20;;;;;;6234225;28;20050;-84
2022/04/29 06:00:41;;;;;;;7.03;4.28;;;13.60;85.00;;;;;;6233183;28;20503;-81
2022/04/29 06:03:43;;;;;;;5.63;4.55;;;14.10;84.80;;;;;;6229199;28;20042;-82
2022/04/29 06:06:45;;;;;;;13.20;5.28;;;14.60;83.40;;;;;;6235521;28;20057;-81
2022/04/29 06:09:46;;;;;;;10.77;4.97;;;15.00;81.90;;;;;;6236470;28;20103;-82
2022/04/29 06:12:49;;;;;;;5.63;4.25;;;15.20;81.30;;;;;;6237795;28;20412;-81
2022/04/29 06:15:51;;;;;;;6.65;4.68;;;15.30;80.80;;;;;;6238620;28;20121;-81
2022/04/29 06:18:53;;;;;;;6.13;4.00;;;15.40;79.50;;;;;;6237928;28;20081;-81
2022/04/29 06:21:55;;;;;;;6.55;4.43;;;15.50;78.90;;;;;;6238180;28;20073;-81
2022/04/29 06:24:57;;;;;;;9.40;4.97;;;15.60;77.60;;;;;;6232806;28;20049;-81
2022/04/29 06:28:00;;;;;;;6.82;4.07;;;15.70;78.30;;;;;;6237939;28;20049;-81
2022/04/29 07:45:16;;;;;;;5.35;2.85;;;31.90;31.70;;;;;;6242940;28;20054;-83
2022/04/29 08:00:58;;;;;;;5.45;3.40;;;32.60;28.90;;;;;;6217945;28;20042;-85
2022/04/29 08:08:09;;;;;;;5.47;2.97;;;31.20;29.70;;;;;;6166907;28;20047;-84
2022/04/29 08:11:11;;;;;;;5.82;3.72;;;29.70;31.00;;;;;;6203043;28;20042;-82
2022/04/29 08:19:04;;;;;;;7.00;4.15;;;27.90;34.40;;;;;;6224325;28;20081;-83
2022/04/29 08:26:28;;;;;;;5.70;2.80;;;26.00;36.20;;;;;;6208881;28;20051;-81
2022/04/29 08:29:29;;;;;;;8.88;3.42;;;25.30;37.50;;;;;;6222706;28;20056;-82
2022/04/29 08:32:39;;;;;;;4.90;2.92;;;24.60;38.70;;;;;;6221654;28;20060;-81
2022/04/29 08:35:43;;;;;;;8.65;3.90;;;24.30;39.60;;;;;;6216471;28;20046;-83
2022/04/29 08:38:46;;;;;;;7.05;4.32;;;24.10;40.10;;;;;;6216115;28;20054;-82
2022/04/29 08:41:51;;;;;;;4.72;3.22;;;23.80;40.50;;;;;;6215494;28;20058;-82
2022/04/29 08:44:54;;;;;;;5.85;3.85;;;23.40;42.10;;;;;;6217082;28;20054;-82
2022/04/29 08:47:56;;;;;;;10.57;3.42;;;23.50;42.10;;;;;;6217207;28;20053;-80
2022/04/29 08:51:00;;;;;;;4.60;2.97;;;23.40;42.80;;;;;;6216555;28;20054;-82
2022/04/29 08:54:04;;;;;;;7.00;3.25;;;23.40;42.60;;;;;;6220429;28;20054;-82
2022/04/29 09:00:27;;;;;;;6.78;2.95;;;23.30;43.70;;;;;;6200751;28;20038;-82
2022/04/29 09:03:30;;;;;;;11.50;2.85;;;23.70;43.10;;;;;;6200277;28;20097;-82
2022/04/29 09:06:33;;;;;;;4.03;2.83;;;24.40;41.90;;;;;;6219898;28;20053;-82
2022/04/29 09:09:35;;;;;;;7.93;3.33;;;25.40;40.20;;;;;;6233728;28;20112;-84
2022/04/29 09:12:37;;;;;;;4.75;3.10;;;26.10;39.10;;;;;;6238167;28;20045;-83
2022/04/29 09:15:47;;;;;;;5.20;3.10;;;27.20;38.00;;;;;;6233740;28;20089;-83
2022/04/29 09:18:58;;;;;;;6.40;3.03;;;27.70;37.00;;;;;;6184432;28;20047;-82
2022/04/29 09:22:08;;;;;;;5.25;3.22;;;28.00;36.20;;;;;;6188174;28;20121;-83
2022/04/29 09:25:10;;;;;;;6.55;3.05;;;28.10;36.00;;;;;;6206149;28;20050;-82
2022/04/29 09:28:44;;;;;;;10.55;3.08;;;27.70;35.60;;;;;;6198028;28;20057;-83
2022/04/29 09:31:58;;;;;;;6.60;2.58;;;26.80;36.30;;;;;;6202479;28;20112;-82
2022/04/29 09:35:00;;;;;;;5.55;2.63;;;25.90;37.40;;;;;;6212880;28;20104;-82
2022/04/29 09:41:24;;;;;;;5.47;2.70;;;25.00;39.30;;;;;;6210344;28;20046;-83
2022/04/29 09:44:28;;;;;;;8.10;2.78;;;24.70;38.80;;;;;;6211467;28;20045;-83
2022/04/29 09:47:35;;;;;;;5.88;2.90;;;24.40;40.30;;;;;;6214148;28;20046;-82
2022/04/29 09:50:47;;;;;;;9.73;3.20;;;24.30;40.40;;;;;;6212662;28;20061;-81
2022/04/29 09:54:08;;;;;;;5.72;2.97;;;24.40;40.20;;;;;;6211384;28;20555;-83
2022/04/29 09:57:12;;;;;;;3.72;2.45;;;24.40;40.20;;;;;;6234991;28;20046;-83
2022/04/29 10:00:15;;;;;;;6.85;2.50;;;24.20;41.10;;;;;;6234742;28;20058;-82
2022/04/29 10:03:17;;;;;;;6.90;2.42;;;24.60;40.50;;;;;;6216266;28;20050;-81
2022/04/29 10:06:23;;;;;;;6.93;2.60;;;24.50;38.30;;;;;;6225185;28;20484;-82
2022/04/29 10:09:31;;;;;;;7.75;2.70;;;24.40;38.10;;;;;;6236034;28;20042;-85
2022/04/29 10:12:34;;;;;;;4.97;2.92;;;24.30;38.30;;;;;;6235162;28;20050;-84
2022/04/29 10:15:37;;;;;;;3.90;2.50;;;24.60;39.20;;;;;;6235483;28;20102;-83
2022/04/29 10:22:04;;;;;;;7.50;3.28;;;25.00;38.70;;;;;;6238247;28;20038;-84
2022/04/29 10:25:10;;;;;;;6.88;2.78;;;25.40;38.20;;;;;;6217193;28;20077;-82
2022/04/29 10:28:17;;;;;;;7.30;2.70;;;25.70;37.80;;;;;;6223624;28;20118;-84
2022/04/29 10:31:21;;;;;;;7.57;3.23;;;25.90;36.40;;;;;;6228885;28;20087;-85
2022/04/29 10:34:30;;;;;;;4.82;2.42;;;25.60;37.30;;;;;;6238006;28;20306;-85
2022/04/29 10:37:38;;;;;;;10.25;3.38;;;25.60;36.50;;;;;;6234408;28;20046;-85
2022/04/29 10:40:41;;;;;;;;;;;25.80;36.40;;;;;;6237658;28;20056;-84
2022/04/29 10:43:49;;;;;;;6.13;2.55;;;25.90;36.20;;;;;;6236510;28;19996;-85
2022/04/29 10:47:03;;;;;;;3.13;1.95;;;26.00;34.40;;;;;;6234927;28;20081;-83
2022/04/29 10:50:37;;;;;;;1.88;1.15;;;25.50;31.20;;;;;;6236827;28;20058;-84
2022/04/29 10:53:47;;;;;;;4.97;1.52;;;25.00;29.80;;;;;;6237640;28;20064;-83
2022/04/29 10:57:01;;;;;;;9.48;1.77;;;24.50;30.80;;;;;;6241894;28;20053;-83
2022/04/29 11:00:10;;;;;;;3.75;2.15;;;24.10;30.90;;;;;;6228201;28;20060;-85
2022/04/29 11:03:35;;;;;;;1.98;1.38;;;24.10;31.10;;;;;;6249362;28;20050;-85
2022/04/29 11:06:37;;;;;;;4.03;1.42;;;24.40;30.00;;;;;;6245187;28;20308;-84
2022/04/29 11:09:50;;;;;;;3.10;1.63;;;24.40;31.10;;;;;;6246894;28;20463;-85
2022/04/29 11:12:58;;;;;;;3.95;1.25;;;24.30;30.40;;;;;;6247327;28;20069;-85
2022/04/29 11:16:09;;;;;;;3.50;1.45;;;24.20;31.10;;;;;;6243891;28;20052;-84
2022/04/29 11:19:21;;;;;;;4.88;1.63;;;24.20;30.70;;;;;;6244727;28;20064;-85
2022/04/29 11:25:54;;;;;;;3.05;1.50;;;23.90;31.20;;;;;;6244465;28;20041;-84
2022/04/29 11:28:58;;;;;;;2.13;1.52;;;23.60;30.90;;;;;;6229576;28;20097;-85
2022/04/29 11:32:02;;;;;;;2.67;1.75;;;23.30;32.00;;;;;;6222001;28;20064;-84
2022/04/29 11:35:04;;;;;;;3.45;1.58;;;23.30;32.80;;;;;;6221093;28;20081;-85
2022/04/29 11:38:08;;;;;;;7.90;1.75;;;23.40;32.40;;;;;;6222001;28;20062;-85
2022/04/29 11:41:16;;;;;;;3.75;1.83;;;23.60;32.90;;;;;;6221688;28;20054;-85
2022/04/29 11:44:33;;;;;;;5.05;1.80;;;24.10;32.90;;;;;;6222271;28;20073;-84
2022/04/29 11:47:36;;;;;;;2.45;1.63;;;24.30;31.70;;;;;;6221296;28;20054;-85
2022/04/29 11:50:38;;;;;;;7.07;1.98;;;24.30;32.30;;;;;;6223190;28;20057;-85
2022/04/29 11:53:53;;;;;;;2.83;1.75;;;24.20;32.50;;;;;;6221811;28;20043;-85
2022/04/29 11:56:55;;;;;;;3.28;2.10;;;24.10;32.20;;;;;;6222496;28;20042;-85
2022/04/29 12:00:00;;;;;;;2.95;1.67;;;24.00;32.10;;;;;;6222886;28;20097;-84
2022/04/29 12:03:20;;;;;;;5.65;1.52;;;24.30;33.40;;;;;;6221653;28;20047;-83
2022/04/29 12:06:21;;;;;;;4.72;2.25;;;24.80;33.40;;;;;;6215906;28;20054;-82
2022/04/29 12:09:31;;;;;;;6.20;2.45;;;24.90;31.10;;;;;;6229452;28;20127;-84
2022/04/29 12:12:33;;;;;;;2.70;1.92;;;25.30;31.50;;;;;;6238359;28;20076;-84
2022/04/29 12:15:41;;;;;;;5.68;2.13;;;25.70;30.70;;;;;;6238561;28;20076;-83
2022/04/29 12:18:45;;;;;;;3.42;2.00;;;26.20;30.70;;;;;;6236899;28;20080;-87
2022/04/29 12:21:55;;;;;;;3.80;1.80;;;26.70;30.90;;;;;;6239963;28;20042;-84
2022/04/29 12:24:57;;;;;;;4.25;2.08;;;26.70;29.50;;;;;;6241871;28;20060;-83
2022/04/29 12:28:16;;;;;;;5.63;1.50;;;26.10;30.10;;;;;;6235785;28;20042;-84
2022/04/29 12:34:50;;;;;;;4.72;2.13;;;25.70;31.00;;;;;;6246937;23;20080;-83
2022/04/29 12:37:54;;;;;;;3.03;1.77;;;25.50;30.10;;;;;;6251729;28;20064;-83
2022/04/29 12:40:55;;;;;;;2.20;1.42;;;25.50;31.60;;;;;;6239162;28;20477;-83
2022/04/29 12:44:08;;;;;;;6.97;2.15;;;25.60;30.90;;;;;;6227104;28;20069;-82
2022/04/29 12:47:25;;;;;;;9.95;2.50;;;25.40;32.00;;;;;;6226302;28;20050;-82
2022/04/29 12:50:28;;;;;;;2.30;1.45;;;25.30;30.90;;;;;;6228707;28;20042;-83
2022/04/29 12:53:31;;;;;;;3.25;2.22;;;25.30;31.40;;;;;;6227791;28;20042;-82
2022/04/29 12:56:34;;;;;;;3.00;1.85;;;25.40;30.40;;;;;;6226549;28;20053;-82
2022/04/29 12:59:38;;;;;;;2.58;1.90;;;25.50;31.20;;;;;;6241522;28;20521;-82
2022/04/29 13:02:41;;;;;;;2.67;1.63;;;25.60;30.50;;;;;;6250739;28;20400;-83
2022/04/29 13:05:43;;;;;;;2.67;1.73;;;25.90;31.30;;;;;;6252409;28;20045;-83
2022/04/29 13:08:45;;;;;;;3.65;1.33;;;26.10;30.10;;;;;;6252611;28;20048;-82
2022/04/29 13:11:47;;;;;;;6.68;1.88;;;26.00;30.80;;;;;;6252474;28;20041;-81
2022/04/29 13:14:49;;;;;;;4.50;2.08;;;26.10;30.60;;;;;;6253470;28;20128;-83
2022/04/29 13:17:52;;;;;;;5.53;1.83;;;26.10;30.00;;;;;;6250775;28;20049;-82
2022/04/29 13:20:53;;;;;;;2.17;1.40;;;25.90;30.70;;;;;;6250671;28;20049;-82
2022/04/29 13:23:56;;;;;;;2.75;1.45;;;25.80;30.00;;;;;;6248633;28;20218;-81
2022/04/29 13:26:58;;;;;;;4.72;1.90;;;25.90;31.70;;;;;;6250329;28;20052;-84
2022/04/29 13:30:00;;;;;;;3.05;2.30;;;26.00;29.90;;;;;;6238680;28;20055;-83
2022/04/29 13:33:03;;;;;;;4.57;1.80;;;25.70;30.30;;;;;;6224541;28;20045;-83
2022/04/29 13:36:08;;;;;;;4.28;1.58;;;25.00;31.20;;;;;;6223349;28;20137;-83
2022/04/29 13:39:09;;;;;;;3.58;1.55;;;24.90;32.00;;;;;;6224564;28;20054;-81
2022/04/29 13:42:12;;;;;;;6.55;2.30;;;24.70;31.90;;;;;;6242504;28;20053;-81
2022/04/29 13:45:13;;;;;;;3.97;1.25;;;24.40;33.20;;;;;;6250669;28;20056;-81
2022/04/29 13:48:17;;;;;;;2.97;1.95;;;24.50;32.90;;;;;;6248065;28;20049;-80
2022/04/29 13:51:19;;;;;;;8.02;1.40;;;24.80;34.50;;;;;;6248731;28;20042;-79
2022/04/29 13:54:21;;;;;;;4.15;1.50;;;25.00;32.70;;;;;;6247983;28;20053;-79
2022/04/29 13:57:23;;;;;;;3.70;1.70;;;25.10;33.00;;;;;;6244320;28;20797;-80
2022/04/29 14:00:25;;;;;;;1.88;1.42;;;25.10;32.70;;;;;;6241228;28;20530;-79
2022/04/29 14:03:28;;;;;;;4.18;1.98;;;25.10;32.10;;;;;;6247776;28;20589;-79
2022/04/29 14:06:30;;;;;;;8.98;1.73;;;24.60;32.60;;;;;;6247527;28;20049;-78
2022/04/29 14:09:31;;;;;;;7.45;1.65;;;24.50;32.80;;;;;;6247502;28;20068;-79
2022/04/29 14:12:34;;;;;;;3.13;1.42;;;24.50;33.20;;;;;;6246996;28;20049;-79
2022/04/29 14:15:36;;;;;;;2.88;1.58;;;24.60;32.70;;;;;;6247335;28;20042;-78
2022/04/29 14:18:39;;;;;;;1.55;1.13;;;24.80;32.40;;;;;;6247290;28;20443;-78
2022/04/29 14:21:42;;;;;;;2.50;1.27;;;25.20;32.70;;;;;;6230777;28;20423;-79
2022/04/29 14:24:44;;;;;;;4.15;1.38;;;25.80;32.40;;;;;;6225184;28;20038;-79
2022/04/29 14:27:47;;;;;;;3.83;1.52;;;26.50;30.80;;;;;;6228588;28;20045;-78
2022/04/29 14:30:49;;;;;;;2.80;1.30;;;26.30;30.90;;;;;;6246178;28;20127;-78
2022/04/29 14:33:52;;;;;;;2.03;1.48;;;26.40;30.70;;;;;;6253154;28;20531;-82
2022/04/29 14:36:54;;;;;;;4.18;2.22;;;26.10;30.80;;;;;;6253713;28;20056;-82
2022/04/29 14:39:56;;;;;;;4.47;1.75;;;25.80;31.60;;;;;;6252449;28;20042;-80
2022/04/29 14:42:58;;;;;;;2.83;1.30;;;25.70;31.60;;;;;;6238276;28;20037;-82
2022/04/29 14:46:00;;;;;;;2.45;1.50;;;25.30;31.80;;;;;;6201485;28;20090;-81
2022/04/29 14:49:03;;;;;;;5.25;1.67;;;25.00;32.30;;;;;;6217307;28;20064;-82
2022/04/29 14:52:07;;;;;;;3.00;1.23;;;24.60;33.30;;;;;;6229855;28;20049;-81
2022/04/29 14:55:11;;;;;;;3.30;1.50;;;24.50;34.00;;;;;;6228862;28;23032;-80
2022/04/29 14:58:13;;;;;;;1.90;1.35;;;24.30;33.40;;;;;;6238314;28;20514;-82
2022/04/29 15:01:15;;;;;;;2.83;1.58;;;24.20;34.10;;;;;;6245564;28;20052;-82
2022/04/29 15:04:18;;;;;;;2.65;1.48;;;24.10;34.70;;;;;;6253527;28;20140;-82
2022/04/29 15:07:23;;;;;;;3.47;1.75;;;24.00;35.60;;;;;;6254219;28;20125;-81
2022/04/29 15:17:07;;;;;;;3.85;1.60;;;24.20;36.20;;;;;;6253209;28;20045;-81
2022/04/29 15:20:10;;;;;;;3.80;1.98;;;24.30;35.70;;;;;;6253210;28;20528;-83
2022/04/29 15:23:12;;;;;;;5.88;1.80;;;24.30;35.40;;;;;;6251977;28;20208;-81
2022/04/29 15:26:14;;;;;;;4.85;1.30;;;24.20;35.80;;;;;;6252862;28;20061;-81
2022/04/29 15:29:16;;;;;;;3.75;1.92;;;23.90;36.10;;;;;;6248343;28;20042;-82
2022/04/29 15:32:19;;;;;;;5.57;2.05;;;23.70;36.80;;;;;;6247765;28;20403;-82
2022/04/29 15:35:22;;;;;;;3.20;1.55;;;23.50;37.00;;;;;;6252603;28;20052;-81
2022/04/29 15:38:24;;;;;;;4.93;1.70;;;23.30;37.40;;;;;;6251191;28;20049;-81
2022/04/29 15:41:26;;;;;;;2.65;1.70;;;23.10;37.30;;;;;;6249321;28;20121;-82
2022/04/29 15:44:30;;;;;;;4.05;1.65;;;22.90;38.00;;;;;;6236034;28;20053;-82
2022/04/29 15:47:32;;;;;;;2.53;1.70;;;22.90;38.20;;;;;;6229191;28;20423;-81
2022/04/29 15:50:36;;;;;;;6.10;1.92;;;22.90;38.40;;;;;;6227863;28;20049;-81
2022/04/29 15:53:37;;;;;;;2.65;1.95;;;23.10;38.10;;;;;;6228474;28;20049;-81
2022/04/29 15:56:39;;;;;;;6.35;2.47;;;23.50;37.20;;;;;;6227305;28;20546;-81
2022/04/29 15:59:41;;;;;;;6.30;2.00;;;23.90;36.90;;;;;;6242221;28;20049;-83
2022/04/29 16:02:43;;;;;;;3.10;1.85;;;24.30;36.40;;;;;;6251208;28;20059;-82
2022/04/29 16:05:46;;;;;;;3.83;1.80;;;24.80;35.50;;;;;;6251624;28;20041;-79
2022/04/29 16:08:48;;;;;;;2.75;1.95;;;24.90;34.30;;;;;;6251490;28;20057;-80
2022/04/29 16:11:50;;;;;;;3.50;1.75;;;24.60;35.60;;;;;;6229382;28;20068;-79
2022/04/29 16:14:52;;;;;;;3.67;1.77;;;24.40;34.70;;;;;;6229243;28;20093;-80
2022/04/29 16:21:15;;;;;;;8.80;2.75;;;23.90;35.50;;;;;;6227916;28;20496;-83
2022/04/29 16:27:36;;;;;;;2.20;1.17;;;23.30;36.20;;;;;;6232875;28;20494;-82
2022/04/29 16:30:38;;;;;;;4.63;1.65;;;23.10;37.00;;;;;;6244912;28;20057;-83
2022/04/29 16:33:40;;;;;;;1.98;1.27;;;23.00;37.40;;;;;;6253500;28;20037;-83
2022/04/29 16:36:43;;;;;;;2.90;1.40;;;22.80;37.60;;;;;;6254374;28;20151;-82
2022/04/29 16:39:45;;;;;;;2.97;1.52;;;22.60;37.60;;;;;;6255090;28;20048;-82
2022/04/29 16:42:47;;;;;;;7.47;1.55;;;22.50;37.80;;;;;;6248331;28;20180;-80
2022/04/29 16:45:49;;;;;;;8.23;1.52;;;22.50;38.40;;;;;;6230229;28;20045;-81
2022/04/29 16:48:51;;;;;;;1.92;1.20;;;22.50;38.80;;;;;;6226110;28;20057;-81
2022/04/29 16:51:54;;;;;;;4.40;1.75;;;22.40;38.80;;;;;;6229591;28;20077;-82
2022/04/29 16:54:56;;;;;;;8.15;1.65;;;22.30;38.70;;;;;;6228888;28;20050;-82
2022/04/29 17:01:20;;;;;;;5.88;1.48;;;22.20;38.90;;;;;;6244113;28;20041;-82
2022/04/29 17:04:22;;;;;;;134.73;61.83;;;22.10;39.30;;;;;;6252605;28;20041;-81
2022/04/29 17:07:25;;;;;;;14.90;11.68;;;22.10;39.00;;;;;;6252442;28;20053;-82
2022/04/29 17:10:27;;;;;;;33.63;28.77;;;22.00;39.80;;;;;;6251686;28;20523;-82
2022/04/29 17:13:29;;;;;;;13.45;12.00;;;21.90;40.00;;;;;;6251185;28;20057;-82
2022/04/29 17:16:32;;;;;;;13.07;11.90;;;22.00;40.60;;;;;;6253056;28;20049;-82
2022/04/29 17:19:34;;;;;;;6.82;6.13;;;22.00;39.70;;;;;;6251441;28;20322;-81
2022/04/29 17:22:37;;;;;;;3.72;3.20;;;21.90;40.10;;;;;;6251880;28;20057;-82
2022/04/29 17:25:39;;;;;;;4.30;2.40;;;21.80;40.80;;;;;;6250699;28;20060;-82
2022/04/29 17:28:42;;;;;;;2.67;1.35;;;21.80;40.70;;;;;;6251261;28;20049;-81
2022/04/29 17:31:43;;;;;;;2.50;1.50;;;21.70;41.40;;;;;;6242711;28;20045;-82
2022/04/29 17:34:45;;;;;;;4.70;1.40;;;21.50;40.90;;;;;;6252419;28;20183;-81
2022/04/29 17:37:49;;;;;;;3.28;1.48;;;21.50;41.20;;;;;;6253256;28;20056;-82
2022/04/29 17:44:10;;;;;;;9.30;1.75;;;21.30;41.40;;;;;;6245444;28;20034;-82
2022/04/29 17:47:12;;;;;;;4.30;1.52;;;21.10;41.60;;;;;;6250015;28;20175;-81
2022/04/29 17:50:18;;;;;;;5.32;1.45;;;21.00;42.10;;;;;;6254340;28;20140;-82
2022/04/29 17:53:22;;;;;;;5.38;1.80;;;20.90;42.00;;;;;;6250660;28;20152;-82
2022/04/29 17:56:23;;;;;;;2.28;1.55;;;20.70;42.30;;;;;;6252393;28;20124;-82
2022/04/29 17:59:25;;;;;;;3.60;1.70;;;20.60;42.70;;;;;;6246896;28;20077;-82
2022/04/29 18:02:27;;;;;;;2.58;1.52;;;20.50;43.20;;;;;;6251168;28;20045;-82
2022/04/29 18:05:30;;;;;;;3.55;1.48;;;20.40;43.20;;;;;;6255285;28;20132;-81
2022/04/29 18:08:34;;;;;;;4.68;1.77;;;20.30;43.80;;;;;;6253982;28;20549;-80
2022/04/29 18:11:35;;;;;;;2.95;1.20;;;20.20;44.20;;;;;;6254907;28;20049;-80
2022/04/29 18:14:38;;;;;;;5.40;1.73;;;20.00;44.60;;;;;;6255635;28;20049;-82
2022/04/29 18:17:40;;;;;;;2.75;1.58;;;19.90;45.60;;;;;;6257447;28;20052;-81
2022/04/29 18:20:42;;;;;;;2.50;1.52;;;19.80;46.90;;;;;;6256403;28;20069;-83
2022/04/29 18:23:46;;;;;;;6.40;1.80;;;19.70;47.20;;;;;;6255135;28;20410;-81